KSVN/SVN METAR and TAF weather

Enter ICAO airport designator
Station Type Date Time Source
KSVN METAR 2020/01/20 17:56 UTC NOAA

KSVN 201756Z AUTO 03009KT 10SM CLR 08/M06 A3026 RMK AO2 SLP250 T00811065 10081 20029 58009 $


Station Type Date Time Source
KSVN Decoded METAR 2020/01/20 17:56 UTC NOAA

Hunter U. S. Army Airfield , GA, United States (KSVN) 32-01N 081-09W
Jan 20, 2020 - 12:56 PM EST / 2020.01.20 1756 UTC
Wind: from the NNE (030 degrees) at 10 MPH (9 KT):0
Visibility: 10 mile(s):0
Sky conditions: clear
Temperature: 46.6 F (8.1 C)
Dew Point: 20.3 F (-6.5 C)
Relative Humidity: 34%
Pressure (altimeter): 30.26 in. Hg (1024 hPa)
Pressure tendency: 0.03 inches (0.9 hPa) lower than three hours ago
ob: KSVN 201756Z AUTO 03009KT 10SM CLR 08/M06 A3026 RMK AO2 SLP250 T00811065 10081 20029 58009
cycle: 18

Station Type Date Time Source
KSVN TAF 2020/01/20 13:07 UTC NOAA

TAF KSVN 201300Z 2013/2119 31012KT 9999 SKC QNH3015INS
BECMG 2017/2018 36009KT 9999 SKC QNH3008INS TX13/2021Z TN03/2112Z

Example: see airport list